Time;durP1;ratioP1;P1;durP2;ratioP2;P2;SDS_P1;SDS_P2;PMS_P1;PMS_P2;Temp;Humidity;BMP_temperature;BMP_pressure;BME280_temperature;BME280_humidity;BME280_pressure;Samples;Min_cycle;Max_cycle;Signal;HPM_P1;HPM_P2
2023/12/08 00:00:45;;;;;;;51.55;18.98;;;;;;;-1.66;100.00;101642.78;5001702;28;20213;-42
2023/12/08 00:03:14;;;;;;;48.25;19.42;;;;;;;-1.70;100.00;101640.91;4997157;28;20266;-40
2023/12/08 00:05:39;;;;;;;43.78;19.42;;;;;;;-1.70;100.00;101648.78;4998352;28;20562;-43
2023/12/08 00:08:05;;;;;;;49.42;20.27;;;;;;;-1.71;100.00;101639.13;5000732;28;20185;-41
2023/12/08 00:10:30;;;;;;;44.55;19.27;;;;;;;-1.75;100.00;101639.00;5003078;28;20201;-42
2023/12/08 00:12:56;;;;;;;43.33;19.58;;;;;;;-1.73;100.00;101627.72;5002136;28;20603;-43
2023/12/08 00:15:21;;;;;;;44.55;20.08;;;;;;;-1.74;100.00;101640.81;5007408;28;20184;-42
2023/12/08 00:17:47;;;;;;;45.35;20.90;;;;;;;-1.74;100.00;101641.69;5007382;28;20201;-39
2023/12/08 00:20:12;;;;;;;44.35;20.27;;;;;;;-1.70;100.00;101656.69;5010022;28;20208;-40
2023/12/08 00:22:38;;;;;;;47.22;21.10;;;;;;;-1.73;100.00;101648.72;5012347;28;20241;-41
2023/12/08 00:25:03;;;;;;;43.13;21.15;;;;;;;-1.70;100.00;101650.53;5009374;28;20189;-38
2023/12/08 00:27:29;;;;;;;43.85;20.38;;;;;;;-1.71;100.00;101646.13;5001819;28;20269;-38
2023/12/08 00:29:55;;;;;;;41.17;20.00;;;;;;;-1.67;100.00;101645.34;5007571;28;20674;-37
2023/12/08 00:32:20;;;;;;;49.65;21.38;;;;;;;-1.71;100.00;101648.75;5000321;28;20235;-41
2023/12/08 00:34:46;;;;;;;48.63;21.70;;;;;;;-1.69;100.00;101650.56;5002490;28;20299;-40
2023/12/08 00:37:12;;;;;;;42.13;20.60;;;;;;;-1.64;100.00;101641.91;5008456;28;20197;-40
2023/12/08 00:39:38;;;;;;;49.17;21.40;;;;;;;-1.65;100.00;101627.88;5008372;28;20584;-39
2023/12/08 00:42:03;;;;;;;48.92;21.70;;;;;;;-1.62;100.00;101616.56;5003725;28;20221;-37
2023/12/08 00:44:29;;;;;;;55.78;22.83;;;;;;;-1.63;100.00;101614.78;5007629;28;20534;-39
2023/12/08 00:46:54;;;;;;;61.78;24.05;;;;;;;-1.60;100.00;101612.22;5007648;28;20657;-37
2023/12/08 00:49:20;;;;;;;55.25;23.05;;;;;;;-1.59;100.00;101600.88;5005795;28;20188;-36
2023/12/08 00:51:45;;;;;;;62.65;23.25;;;;;;;-1.54;100.00;101608.00;5005108;28;20296;-41
2023/12/08 00:54:13;;;;;;;61.97;23.05;;;;;;;-1.55;100.00;101607.97;5007969;28;20184;-41
2023/12/08 00:56:39;;;;;;;59.60;24.13;;;;;;;-1.51;100.00;101612.44;5006480;28;20508;-39
2023/12/08 00:59:04;;;;;;;63.63;23.33;;;;;;;-1.51;100.00;101592.34;5006741;28;20193;-39
2023/12/08 01:01:30;;;;;;;58.58;23.92;;;;;;;-1.48;100.00;101594.13;5003604;28;20283;-38
2023/12/08 01:03:55;;;;;;;58.72;23.38;;;;;;;-1.47;100.00;101593.28;5002207;28;20193;-39
2023/12/08 01:06:21;;;;;;;54.10;21.65;;;;;;;-1.49;100.00;101588.00;5009380;28;20192;-42
2023/12/08 01:08:46;;;;;;;51.90;20.23;;;;;;;-1.47;100.00;101583.63;5007578;28;20185;-39
2023/12/08 01:11:12;;;;;;;54.85;20.77;;;;;;;-1.41;100.00;101571.50;5008570;28;20231;-37
2023/12/08 01:13:37;;;;;;;49.75;19.48;;;;;;;-1.40;100.00;101570.63;5004419;28;20189;-42
2023/12/08 01:16:06;;;;;;;46.45;20.80;;;;;;;-1.46;100.00;101584.56;5007974;28;20500;-41
2023/12/08 01:18:32;;;;;;;47.17;19.23;;;;;;;-1.43;100.00;101576.72;5005824;28;20695;-42
2023/12/08 01:20:58;;;;;;;47.35;20.30;;;;;;;-1.42;100.00;101575.88;5006948;28;20663;-41
2023/12/08 01:23:23;;;;;;;52.50;20.77;;;;;;;-1.41;100.00;101579.41;5009613;28;20196;-41
2023/12/08 01:25:49;;;;;;;49.97;19.20;;;;;;;-1.41;100.00;101572.38;5002707;28;20547;-42
2023/12/08 01:28:15;;;;;;;50.10;20.50;;;;;;;-1.41;100.00;101582.03;5008413;28;20192;-39
2023/12/08 01:30:40;;;;;;;46.83;19.35;;;;;;;-1.42;100.00;101572.34;5004440;28;20211;-39
2023/12/08 01:33:06;;;;;;;47.42;20.50;;;;;;;-1.42;100.00;101586.41;5000627;28;20741;-40
2023/12/08 01:35:32;;;;;;;46.92;19.77;;;;;;;-1.43;100.00;101579.34;5007335;28;20200;-41
2023/12/08 01:37:57;;;;;;;42.58;19.65;;;;;;;-1.39;100.00;101575.06;5009092;28;20191;-42
2023/12/08 01:40:23;;;;;;;46.28;19.10;;;;;;;-1.45;100.00;101570.53;5005126;28;20219;-40
2023/12/08 01:42:49;;;;;;;46.28;19.15;;;;;;;-1.42;100.00;101570.63;5006652;28;20264;-41
2023/12/08 01:45:15;;;;;;;46.45;19.67;;;;;;;-1.47;100.00;101567.88;5004899;28;20683;-40
2023/12/08 01:47:41;;;;;;;40.65;18.55;;;;;;;-1.49;100.00;101568.69;5006284;28;20675;-38
2023/12/08 01:50:09;;;;;;;42.00;19.30;;;;;;;-1.52;100.00;101585.28;5008141;28;20205;-41
2023/12/08 01:52:36;;;;;;;43.42;19.08;;;;;;;-1.48;100.00;101570.47;5007677;28;20185;-38
2023/12/08 01:55:02;;;;;;;49.72;19.25;;;;;;;-1.46;100.00;101574.03;5002924;28;20196;-42
2023/12/08 01:57:28;;;;;;;44.15;19.52;;;;;;;-1.48;100.00;101581.00;5011464;28;20187;-39
2023/12/08 01:59:55;;;;;;;46.72;19.65;;;;;;;-1.47;100.00;101580.13;5003250;28;20671;-41
2023/12/08 02:02:21;;;;;;;39.55;18.73;;;;;;;-1.46;100.00;101574.91;4999977;28;20243;-41
2023/12/08 02:04:49;;;;;;;38.95;19.02;;;;;;;-1.41;100.00;101572.38;5009828;28;20694;-42
2023/12/08 02:07:15;;;;;;;43.97;19.67;;;;;;;-1.45;100.00;101575.78;5002458;28;20677;-41
2023/12/08 02:09:41;;;;;;;42.60;20.05;;;;;;;-1.47;100.00;101577.50;5006784;28;20188;-41
2023/12/08 02:12:08;;;;;;;39.38;19.50;;;;;;;-1.46;100.00;101563.53;5000601;28;20508;-40
2023/12/08 02:14:33;;;;;;;39.42;19.63;;;;;;;-1.46;100.00;101551.25;5010973;28;20181;-41
2023/12/08 02:17:22;;;;;;;45.47;18.95;;;;;;;-1.46;100.00;101547.75;5004076;28;20186;-36
2023/12/08 02:19:49;;;;;;;39.55;19.55;;;;;;;-1.46;100.00;101539.88;5003585;28;20232;-40
2023/12/08 02:22:16;;;;;;;40.95;19.80;;;;;;;-1.43;100.00;101555.69;5006307;28;20207;-40
2023/12/08 02:24:42;;;;;;;39.25;19.25;;;;;;;-1.46;100.00;101547.75;5007468;28;20219;-40
2023/12/08 02:27:10;;;;;;;42.95;18.50;;;;;;;-1.38;100.00;101547.91;5009526;28;20613;-39
2023/12/08 02:29:36;;;;;;;40.97;20.65;;;;;;;-1.47;100.00;101532.81;4997847;28;20212;-42
2023/12/08 02:32:14;;;;;;;36.17;19.02;;;;;;;-1.49;100.00;101532.81;5006802;28;20598;-40
2023/12/08 02:34:42;;;;;;;32.70;18.08;;;;;;;-1.45;100.00;101518.88;5006175;28;20206;-38
2023/12/08 02:37:11;;;;;;;34.95;18.38;;;;;;;-1.45;100.00;101504.84;5006292;28;20189;-41
2023/12/08 02:39:38;;;;;;;38.65;19.58;;;;;;;-1.46;100.00;101501.34;5000613;28;20734;-40
2023/12/08 02:42:04;;;;;;;37.72;19.70;;;;;;;-1.49;100.00;101488.13;5006116;28;20197;-39
2023/12/08 02:44:30;;;;;;;35.78;19.73;;;;;;;-1.46;100.00;101480.31;5005766;28;20177;-41
2023/12/08 02:46:55;;;;;;;34.90;18.20;;;;;;;-1.51;100.00;101475.78;5003094;28;20200;-38
2023/12/08 02:49:21;;;;;;;29.20;17.63;;;;;;;-1.52;100.00;101469.66;4999948;28;20188;-42
2023/12/08 02:51:46;;;;;;;34.83;18.08;;;;;;;-1.52;100.00;101463.53;5008558;28;20208;-40
2023/12/08 02:54:12;;;;;;;36.05;19.70;;;;;;;-1.54;100.00;101460.84;5005339;28;20252;-42
2023/12/08 02:56:37;;;;;;;33.88;20.20;;;;;;;-1.56;100.00;101461.69;5008199;28;20623;-42
2023/12/08 02:59:03;;;;;;;32.60;19.05;;;;;;;-1.52;100.00;101458.28;5007259;28;20177;-37
2023/12/08 03:01:28;;;;;;;36.55;20.83;;;;;;;-1.56;100.00;101452.06;5002005;28;20213;-40
2023/12/08 03:03:53;;;;;;;34.35;20.13;;;;;;;-1.59;100.00;101461.63;5000367;28;20189;-39
2023/12/08 03:06:19;;;;;;;32.35;19.77;;;;;;;-1.60;100.00;101444.94;5003970;28;20189;-42
2023/12/08 03:08:44;;;;;;;32.45;19.55;;;;;;;-1.67;100.00;101443.06;5005770;28;20183;-42
2023/12/08 03:11:10;;;;;;;29.73;19.48;;;;;;;-1.73;100.00;101443.84;5002762;28;20655;-41
2023/12/08 03:13:35;;;;;;;32.58;19.73;;;;;;;-1.63;100.00;101428.25;5003214;28;20667;-41
2023/12/08 03:16:01;;;;;;;28.30;19.17;;;;;;;-1.76;100.00;101417.47;5001972;28;20256;-41
2023/12/08 03:18:26;;;;;;;28.65;17.23;;;;;;;-1.76;100.00;101430.59;5003330;28;20199;-40
2023/12/08 03:20:53;;;;;;;31.08;18.33;;;;;;;-1.80;100.00;101428.75;5001260;28;20212;-40
2023/12/08 03:23:18;;;;;;;27.73;18.08;;;;;;;-1.79;100.00;101421.75;5002595;28;20276;-38
2023/12/08 03:25:44;;;;;;;25.65;15.43;;;;;;;-1.78;100.00;101418.31;5008278;28;20268;-40
2023/12/08 03:28:09;;;;;;;24.75;15.00;;;;;;;-1.83;100.00;101422.59;5002617;28;20544;-41
2023/12/08 03:30:35;;;;;;;24.88;14.05;;;;;;;-1.80;100.00;101426.13;5005001;28;20196;-42
2023/12/08 03:33:00;;;;;;;24.60;15.48;;;;;;;-1.81;100.00;101413.88;5009860;28;20216;-40
2023/12/08 03:35:27;;;;;;;24.27;15.15;;;;;;;-1.81;100.00;101421.75;5004866;28;20169;-40
2023/12/08 03:37:52;;;;;;;25.27;15.75;;;;;;;-1.79;100.00;101425.31;5006473;28;20216;-38
2023/12/08 03:40:18;;;;;;;25.65;16.05;;;;;;;-1.79;100.00;101430.56;5002796;28;20730;-42
2023/12/08 03:42:43;;;;;;;25.73;15.18;;;;;;;-1.77;100.00;101423.59;5006363;28;20211;-39
2023/12/08 03:45:09;;;;;;;28.08;15.93;;;;;;;-1.78;100.00;101421.81;5002669;28;20608;-39
2023/12/08 03:47:34;;;;;;;27.65;16.90;;;;;;;-1.83;100.00;101415.56;5007838;28;20566;-40
2023/12/08 03:50:00;;;;;;;29.85;16.48;;;;;;;-1.79;100.00;101420.06;5004895;28;20276;-37
2023/12/08 03:52:25;;;;;;;28.67;17.30;;;;;;;-1.77;100.00;101414.81;5010539;28;20189;-39
2023/12/08 03:54:51;;;;;;;29.65;16.73;;;;;;;-1.75;100.00;101419.25;5008911;28;20180;-42
2023/12/08 03:57:16;;;;;;;27.90;16.45;;;;;;;-1.68;100.00;101404.53;5010368;28;20207;-39
2023/12/08 03:59:42;;;;;;;27.92;16.20;;;;;;;-1.68;100.00;101388.75;5012698;28;20204;-38
2023/12/08 04:02:08;;;;;;;30.20;17.42;;;;;;;-1.72;100.00;101392.16;5012228;28;20494;-40
2023/12/08 04:04:34;;;;;;;27.85;17.02;;;;;;;-1.66;100.00;101397.56;5004598;28;20189;-41
2023/12/08 04:06:59;;;;;;;29.95;16.58;;;;;;;-1.64;100.00;101401.09;5006346;28;20855;-41
2023/12/08 04:09:25;;;;;;;24.02;16.02;;;;;;;-1.60;100.00;101387.16;5008847;28;20264;-39
2023/12/08 04:11:50;;;;;;;26.13;16.70;;;;;;;-1.64;100.00;101402.81;5003201;28;20205;-39
2023/12/08 04:14:16;;;;;;;26.27;16.35;;;;;;;-1.68;100.00;101381.75;5003074;28;20172;-40
2023/12/08 04:16:41;;;;;;;24.80;15.65;;;;;;;-1.64;100.00;101379.19;5011176;28;20644;-40
2023/12/08 04:19:07;;;;;;;28.02;16.02;;;;;;;-1.64;100.00;101366.03;5007560;28;20284;-40
2023/12/08 04:21:32;;;;;;;24.83;15.68;;;;;;;-1.70;100.00;101372.97;5006988;28;20219;-40
2023/12/08 04:23:58;;;;;;;28.75;18.45;;;;;;;-1.71;100.00;101363.28;5012338;28;20609;-40
2023/12/08 04:26:26;;;;;;;27.92;18.30;;;;;;;-1.62;100.00;101361.72;5005974;28;20169;-41
2023/12/08 04:28:54;;;;;;;28.05;17.45;;;;;;;-1.67;100.00;101354.63;5010748;28;20186;-42
2023/12/08 04:31:20;;;;;;;26.33;15.90;;;;;;;-1.69;100.00;101364.22;5008456;28;20553;-42
2023/12/08 04:33:47;;;;;;;29.00;16.75;;;;;;;-1.63;100.00;101352.06;5007653;28;20180;-39
2023/12/08 04:36:12;;;;;;;28.35;16.65;;;;;;;-1.64;100.00;101361.69;5012350;28;20272;-39
2023/12/08 04:38:38;;;;;;;30.40;16.83;;;;;;;-1.69;100.00;101340.56;5006092;28;20686;-41
2023/12/08 04:41:04;;;;;;;26.88;15.90;;;;;;;-1.64;100.00;101345.94;5010133;28;20215;-38
2023/12/08 04:43:29;;;;;;;29.27;16.48;;;;;;;-1.65;100.00;101352.03;5010343;28;20188;-40
2023/12/08 04:45:55;;;;;;;26.20;15.60;;;;;;;-1.55;100.00;101363.59;5012275;28;20184;-39
2023/12/08 04:48:20;;;;;;;30.95;18.10;;;;;;;-1.60;100.00;101370.50;5008369;28;20173;-39
2023/12/08 04:50:46;;;;;;;33.28;17.63;;;;;;;-1.57;100.00;101360.97;5008785;28;20254;-38
2023/12/08 04:53:11;;;;;;;30.10;18.10;;;;;;;-1.57;100.00;101355.69;5009986;28;20181;-39
2023/12/08 04:55:37;;;;;;;31.13;17.15;;;;;;;-1.57;100.00;101362.72;5009128;28;20189;-41
2023/12/08 04:58:03;;;;;;;31.45;16.65;;;;;;;-1.53;100.00;101369.75;5008106;28;20675;-39
2023/12/08 05:00:28;;;;;;;28.38;17.20;;;;;;;-1.49;100.00;101363.72;5010752;28;20291;-39
2023/12/08 05:02:57;;;;;;;35.45;19.50;;;;;;;-1.48;100.00;101355.88;5008680;28;20187;-39
2023/12/08 05:05:24;;;;;;;32.33;18.13;;;;;;;-1.49;100.00;101350.59;5000043;28;20220;-42
2023/12/08 05:07:50;;;;;;;33.58;18.67;;;;;;;-1.46;100.00;101348.03;4981840;28;20223;-41
2023/12/08 05:10:16;;;;;;;31.17;18.15;;;;;;;-1.46;100.00;101359.41;4996574;28;20477;-37
2023/12/08 05:12:43;;;;;;;30.13;18.70;;;;;;;-1.41;100.00;101351.63;5037697;23;20233;-40
2023/12/08 05:15:09;;;;;;;31.38;18.55;;;;;;;-1.40;100.00;101355.13;4980397;28;20348;-43
2023/12/08 05:17:35;;;;;;;32.88;19.73;;;;;;;-1.40;100.00;101349.88;4986053;28;20252;-44
2023/12/08 05:20:03;;;;;;;34.72;20.35;;;;;;;-1.40;100.00;101332.38;4988867;28;20206;-43
2023/12/08 05:22:29;;;;;;;33.88;19.13;;;;;;;-1.38;100.00;101349.03;4989301;28;20217;-40
2023/12/08 05:24:54;;;;;;;35.72;20.73;;;;;;;-1.40;100.00;101335.00;4990005;28;20194;-41
2023/12/08 05:27:20;;;;;;;33.65;20.08;;;;;;;-1.37;100.00;101332.44;4984975;28;20244;-43
2023/12/08 05:29:45;;;;;;;36.00;18.77;;;;;;;-1.38;100.00;101333.25;4984894;28;20181;-41
2023/12/08 05:32:11;;;;;;;34.63;19.80;;;;;;;-1.34;100.00;101350.88;4989340;28;20204;-41
2023/12/08 05:34:36;;;;;;;32.85;19.00;;;;;;;-1.32;100.00;101338.66;4990824;28;20429;-41
2023/12/08 05:37:02;;;;;;;38.45;19.88;;;;;;;-1.35;100.00;101322.84;4984864;28;20684;-44
2023/12/08 05:39:27;;;;;;;36.15;19.60;;;;;;;-1.34;100.00;101310.56;4981087;28;20189;-42
2023/12/08 05:41:53;;;;;;;36.55;19.77;;;;;;;-1.33;100.00;101293.97;4981234;28;20671;-42
2023/12/08 05:44:20;;;;;;;38.15;19.85;;;;;;;-1.29;100.00;101290.50;4987230;28;20217;-39
2023/12/08 05:46:45;;;;;;;37.00;20.83;;;;;;;-1.32;100.00;101277.31;4986328;28;20185;-40
2023/12/08 05:49:11;;;;;;;34.05;19.55;;;;;;;-1.34;100.00;101272.03;4984197;28;20727;-42
2023/12/08 05:51:36;;;;;;;33.05;19.58;;;;;;;-1.30;100.00;101273.84;4980145;28;20248;-39
2023/12/08 05:54:03;;;;;;;30.48;18.60;;;;;;;-1.30;100.00;101286.13;4987428;28;20194;-42
2023/12/08 05:56:28;;;;;;;31.98;18.00;;;;;;;-1.26;100.00;101274.78;4985018;28;20272;-44
2023/12/08 05:58:54;;;;;;;34.40;20.75;;;;;;;-1.27;100.00;101279.19;4981798;28;20276;-43
2023/12/08 06:01:19;;;;;;;36.60;18.70;;;;;;;-1.29;100.00;101273.00;4986194;28;20850;-39
2023/12/08 06:03:45;;;;;;;34.33;18.02;;;;;;;-1.27;100.00;101271.28;4981055;28;20190;-41
2023/12/08 06:06:10;;;;;;;30.13;17.90;;;;;;;-1.28;100.00;101281.78;4982895;28;20181;-41
2023/12/08 06:08:36;;;;;;;34.90;18.27;;;;;;;-1.31;100.00;101279.09;4981535;28;20197;-44
2023/12/08 06:11:03;;;;;;;36.13;19.00;;;;;;;-1.29;100.00;101270.38;4985324;28;20185;-41
2023/12/08 06:13:28;;;;;;;31.30;16.83;;;;;;;-1.18;100.00;101280.16;4982972;28;20648;-40
2023/12/08 06:15:54;;;;;;;32.42;18.38;;;;;;;-1.22;100.00;101283.59;4982212;28;20189;-40
2023/12/08 06:18:20;;;;;;;34.80;18.13;;;;;;;-1.19;100.00;101299.44;4980072;28;20260;-41
2023/12/08 06:20:45;;;;;;;31.35;17.42;;;;;;;-1.17;100.00;101289.84;4981947;28;20248;-40
2023/12/08 06:23:11;;;;;;;28.98;17.15;;;;;;;-1.16;100.00;101300.41;4988718;28;20276;-41
2023/12/08 06:25:36;;;;;;;33.80;18.77;;;;;;;-1.16;100.00;101292.50;4986609;28;20188;-40
2023/12/08 06:28:02;;;;;;;31.95;19.20;;;;;;;-1.10;100.00;101286.44;4981560;28;20180;-38
2023/12/08 06:30:28;;;;;;;35.35;19.65;;;;;;;-1.11;100.00;101289.94;4983359;28;20705;-41
2023/12/08 06:32:53;;;;;;;36.22;18.88;;;;;;;-1.10;100.00;101279.44;4980844;28;20269;-41
2023/12/08 06:35:19;;;;;;;33.85;19.95;;;;;;;-1.09;100.00;101272.47;4981070;28;20600;-39
2023/12/08 06:37:45;;;;;;;29.90;18.55;;;;;;;-1.06;100.00;101262.84;4983341;28;20185;-40
2023/12/08 06:40:11;;;;;;;32.90;18.92;;;;;;;-1.00;100.00;101275.22;4982537;28;20266;-39
2023/12/08 06:42:37;;;;;;;26.95;17.67;;;;;;;-0.99;100.00;101277.00;4988265;28;20209;-41
2023/12/08 06:45:02;;;;;;;24.48;16.73;;;;;;;-0.97;100.00;101267.38;4975842;28;20543;-42
2023/12/08 06:47:28;;;;;;;28.08;17.13;;;;;;;-0.95;100.00;101263.03;4980803;28;20249;-40
2023/12/08 06:49:53;;;;;;;24.38;15.50;;;;;;;-0.98;100.00;101252.47;4983200;28;20177;-38
2023/12/08 06:52:19;;;;;;;26.10;15.48;;;;;;;-0.93;100.00;101244.66;4981462;28;20263;-40
2023/12/08 06:54:45;;;;;;;24.48;16.75;;;;;;;-0.96;100.00;101255.09;4978432;28;20189;-39
2023/12/08 06:57:10;;;;;;;22.00;15.05;;;;;;;-0.95;100.00;101249.00;4984030;28;20245;-40
2023/12/08 06:59:36;;;;;;;23.08;16.23;;;;;;;-0.93;100.00;101248.16;4968255;28;20182;-40
2023/12/08 07:02:01;;;;;;;24.75;15.02;;;;;;;-0.97;100.00;101248.97;4981322;28;20232;-40
2023/12/08 07:04:27;;;;;;;24.42;15.32;;;;;;;-0.96;100.00;101255.09;4978337;28;20185;-41
2023/12/08 07:06:53;;;;;;;22.27;14.85;;;;;;;-0.88;100.00;101253.50;4975859;28;20667;-40
2023/12/08 07:09:18;;;;;;;25.70;14.88;;;;;;;-0.90;100.00;101247.31;4981520;28;20189;-42
2023/12/08 07:11:44;;;;;;;22.40;15.95;;;;;;;-0.92;100.00;101249.94;4983928;28;20359;-40
2023/12/08 07:14:09;;;;;;;26.50;16.55;;;;;;;-0.88;100.00;101249.09;4980779;28;20293;-40
2023/12/08 07:16:35;;;;;;;26.25;15.88;;;;;;;-0.87;100.00;101250.88;4982352;28;20576;-41
2023/12/08 07:19:01;;;;;;;27.73;16.30;;;;;;;-0.89;100.00;101239.47;4980551;28;20201;-40
2023/12/08 07:21:26;;;;;;;24.58;15.63;;;;;;;-0.88;100.00;101235.06;4985696;28;20205;-39
2023/12/08 07:23:52;;;;;;;26.15;16.25;;;;;;;-0.86;100.00;101233.34;4979840;28;20192;-42
2023/12/08 07:26:18;;;;;;;23.02;15.35;;;;;;;-0.86;100.00;101217.56;4982064;28;20213;-42
2023/12/08 07:28:44;;;;;;;22.30;15.15;;;;;;;-0.85;100.00;101229.88;4985990;28;20262;-40
2023/12/08 07:31:10;;;;;;;24.60;16.13;;;;;;;-0.81;100.00;101233.41;4983639;28;20609;-41
2023/12/08 07:33:35;;;;;;;22.35;15.05;;;;;;;-0.85;100.00;101232.50;4981923;28;20257;-39
2023/12/08 07:36:00;;;;;;;25.17;15.70;;;;;;;-0.81;100.00;101236.06;4981631;28;20225;-40
2023/12/08 07:38:26;;;;;;;22.40;15.48;;;;;;;-0.83;100.00;101230.78;4984940;28;20296;-41
2023/12/08 07:40:51;;;;;;;25.75;16.25;;;;;;;-0.80;100.00;101224.69;4988516;28;20701;-40
2023/12/08 07:43:17;;;;;;;24.08;15.23;;;;;;;-0.77;100.00;101236.13;4985438;28;20192;-41
2023/12/08 07:45:42;;;;;;;27.52;15.48;;;;;;;-0.76;100.00;101231.75;4979854;28;20645;-43
2023/12/08 07:48:08;;;;;;;22.98;14.57;;;;;;;-0.77;100.00;101224.72;4986070;28;20185;-39
2023/12/08 07:50:33;;;;;;;22.50;15.35;;;;;;;-0.77;100.00;101228.22;4982193;28;20189;-42
2023/12/08 07:52:59;;;;;;;21.98;14.00;;;;;;;-0.78;100.00;101220.34;4984231;28;20645;-41
2023/12/08 07:55:25;;;;;;;26.33;15.63;;;;;;;-0.79;100.00;101215.91;4983979;28;20190;-42
2023/12/08 07:57:50;;;;;;;21.83;14.63;;;;;;;-0.76;100.00;101221.25;4986859;28;20181;-40
2023/12/08 08:00:16;;;;;;;23.00;14.75;;;;;;;-0.74;100.00;101219.53;4986406;28;20645;-42
2023/12/08 08:02:43;;;;;;;21.20;13.77;;;;;;;-0.76;100.00;101211.59;4981532;28;20189;-42
2023/12/08 08:05:09;;;;;;;22.83;15.45;;;;;;;-0.72;100.00;101207.25;4982682;28;20554;-42
2023/12/08 08:07:34;;;;;;;24.23;15.15;;;;;;;-0.73;100.00;101195.84;4984310;28;20187;-41
2023/12/08 08:10:00;;;;;;;22.58;15.02;;;;;;;-0.74;100.00;101203.72;4984118;28;20727;-41
2023/12/08 08:12:26;;;;;;;21.73;14.75;;;;;;;-0.71;100.00;101201.13;4988757;28;20304;-41
2023/12/08 08:14:51;;;;;;;21.67;14.10;;;;;;;-0.67;100.00;101202.94;4984410;28;20216;-43
2023/12/08 08:17:17;;;;;;;20.65;14.45;;;;;;;-0.72;100.00;101199.34;4982677;28;20826;-40
2023/12/08 08:19:43;;;;;;;21.52;13.85;;;;;;;-0.72;100.00;101207.25;4981870;28;20649;-42
2023/12/08 08:22:08;;;;;;;21.67;14.93;;;;;;;-0.68;100.00;101198.53;4986817;28;20240;-39
2023/12/08 08:24:34;;;;;;;21.52;14.32;;;;;;;-0.68;100.00;101188.00;4989824;28;20276;-39
2023/12/08 08:27:00;;;;;;;20.73;14.95;;;;;;;-0.64;100.00;101190.69;4983360;28;20641;-43
2023/12/08 08:29:26;;;;;;;20.08;13.75;;;;;;;-0.65;100.00;101191.56;4985093;28;20280;-41
2023/12/08 08:31:52;;;;;;;21.17;13.40;;;;;;;-0.63;100.00;101197.75;4983780;28;20217;-40
2023/12/08 08:34:18;;;;;;;19.05;13.65;;;;;;;-0.60;100.00;101196.88;4982041;28;20185;-40
2023/12/08 08:36:44;;;;;;;21.40;13.75;;;;;;;-0.61;100.00;101187.25;4978374;28;20716;-42
2023/12/08 08:39:09;;;;;;;23.73;14.23;;;;;;;-0.63;100.00;101175.81;4984181;28;20664;-41
2023/12/08 08:41:35;;;;;;;21.38;14.73;;;;;;;-0.63;100.00;101179.31;4985503;28;20240;-41
2023/12/08 08:44:01;;;;;;;19.25;13.30;;;;;;;-0.60;100.00;101175.84;4983279;28;20239;-43
2023/12/08 08:46:26;;;;;;;19.63;13.80;;;;;;;-0.59;100.00;101177.63;4980377;28;20209;-42
2023/12/08 08:48:54;;;;;;;21.17;13.90;;;;;;;-0.58;100.00;101178.50;4987275;28;20216;-42
2023/12/08 08:51:21;;;;;;;20.42;14.27;;;;;;;-0.56;100.00;101177.66;4984089;28;20201;-41
2023/12/08 08:53:49;;;;;;;17.58;13.35;;;;;;;-0.51;100.00;101173.31;4983205;28;20192;-40
2023/12/08 08:56:16;;;;;;;24.08;14.38;;;;;;;-0.51;100.00;101172.44;4981502;28;20285;-43
2023/12/08 08:58:41;;;;;;;19.65;13.82;;;;;;;-0.52;100.00;101168.94;4982988;28;20209;-42
2023/12/08 09:01:07;;;;;;;20.23;13.18;;;;;;;-0.52;100.00;101170.69;4980748;28;20753;-42
2023/12/08 09:03:32;;;;;;;21.63;12.90;;;;;;;-0.52;100.00;101171.56;4983985;28;20300;-40
2023/12/08 09:05:58;;;;;;;16.58;12.43;;;;;;;-0.52;100.00;101162.78;4980483;28;20208;-42
2023/12/08 09:08:24;;;;;;;19.08;12.52;;;;;;;-0.48;100.00;101149.69;4980574;28;20743;-41
2023/12/08 09:10:50;;;;;;;20.17;12.95;;;;;;;-0.46;100.00;101142.69;4983252;28;20194;-40
2023/12/08 09:13:15;;;;;;;19.38;12.57;;;;;;;-0.46;100.00;101141.78;4987623;28;20568;-41
2023/12/08 09:15:43;;;;;;;16.40;11.55;;;;;;;-0.47;100.00;101154.06;4983073;28;20200;-40
2023/12/08 09:18:09;;;;;;;17.83;11.65;;;;;;;-0.46;100.00;101150.59;4977781;28;20232;-40
2023/12/08 09:20:36;;;;;;;17.13;12.23;;;;;;;-0.46;100.00;101147.97;4983928;28;20209;-40
2023/12/08 09:23:02;;;;;;;15.18;10.93;;;;;;;-0.45;100.00;101140.94;4984267;28;20189;-43
2023/12/08 09:25:28;;;;;;;16.95;12.13;;;;;;;-0.41;100.00;101134.84;4982112;28;20664;-43
2023/12/08 09:27:53;;;;;;;15.32;11.07;;;;;;;-0.34;100.00;101133.16;4979969;28;20310;-40
2023/12/08 09:30:19;;;;;;;16.92;10.70;;;;;;;-0.37;100.00;101128.75;4981321;28;20616;-42
2023/12/08 09:32:44;;;;;;;17.05;11.13;;;;;;;-0.36;100.00;101138.41;4978276;28;20190;-41
2023/12/08 09:35:10;;;;;;;16.90;11.23;;;;;;;-0.31;100.00;101144.59;4982716;28;20189;-40
2023/12/08 09:37:35;;;;;;;18.73;10.43;;;;;;;-0.31;100.00;101126.16;4979395;28;20236;-43
2023/12/08 09:40:01;;;;;;;17.50;11.05;;;;;;;-0.31;100.00;101131.44;4977128;28;20209;-40
2023/12/08 09:42:32;;;;;;;19.27;11.68;;;;;;;-0.28;100.00;101130.59;4979210;28;20233;-42
2023/12/08 09:44:58;;;;;;;14.55;10.40;;;;;;;-0.30;100.00;101125.31;4977659;28;20753;-42
2023/12/08 09:47:25;;;;;;;17.17;11.15;;;;;;;-0.24;100.00;101135.00;4978870;28;20179;-41
2023/12/08 09:49:52;;;;;;;15.55;11.57;;;;;;;-0.24;100.00;101124.47;4982298;28;20178;-42
2023/12/08 09:52:17;;;;;;;18.17;10.77;;;;;;;-0.23;100.00;101126.25;4979812;28;20781;-42
2023/12/08 09:54:44;;;;;;;16.00;10.93;;;;;;;-0.23;100.00;101129.78;4984720;28;20268;-40
2023/12/08 09:57:10;;;;;;;18.17;11.93;;;;;;;-0.24;100.00;101116.59;4978761;28;20197;-40
2023/12/08 09:59:38;;;;;;;19.90;11.98;;;;;;;-0.20;100.00;101121.03;4975811;28;20185;-42
2023/12/08 10:02:04;;;;;;;19.90;12.50;;;;;;;-0.17;100.00;101118.44;4977645;28;20288;-40
2023/12/08 10:04:29;;;;;;;17.30;12.07;;;;;;;-0.18;100.00;101115.78;4981154;28;20614;-39
2023/12/08 10:06:58;;;;;;;17.65;11.82;;;;;;;-0.18;100.00;101107.88;4978003;28;20194;-38
2023/12/08 10:09:25;;;;;;;19.50;12.48;;;;;;;-0.15;100.00;101092.09;4985762;28;20186;-39
2023/12/08 10:11:50;;;;;;;18.10;11.80;;;;;;;-0.14;100.00;101089.47;4980013;28;20214;-42
2023/12/08 10:14:18;;;;;;;19.08;12.60;;;;;;;-0.13;100.00;101088.63;4980369;28;20297;-40
2023/12/08 10:16:46;;;;;;;18.75;11.82;;;;;;;-0.14;100.00;101088.59;4977435;28;20236;-40
2023/12/08 10:19:12;;;;;;;20.58;11.38;;;;;;;-0.12;100.00;101087.75;4977791;28;20248;-41
2023/12/08 10:21:38;;;;;;;26.27;15.77;;;;;;;-0.09;100.00;101081.63;4979305;28;20700;-41
2023/12/08 10:24:04;;;;;;;23.42;13.85;;;;;;;-0.04;100.00;101093.97;4976043;28;20174;-42
2023/12/08 10:26:33;;;;;;;19.25;12.65;;;;;;;-0.05;100.00;101073.75;4980774;28;20512;-41
2023/12/08 10:29:00;;;;;;;56.50;26.38;;;;;;;0.01;100.00;101083.50;4980409;28;20194;-40
2023/12/08 10:31:27;;;;;;;18.15;11.25;;;;;;;-0.02;100.00;101096.63;4984622;28;20208;-40
2023/12/08 10:33:55;;;;;;;16.50;11.13;;;;;;;0.00;100.00;101089.63;4979233;28;20181;-42
2023/12/08 10:36:21;;;;;;;20.65;11.77;;;;;;;0.01;100.00;101086.13;4979748;28;20205;-43
2023/12/08 10:38:47;;;;;;;14.88;10.75;;;;;;;0.02;100.00;101085.25;4976699;28;20745;-41
2023/12/08 10:41:14;;;;;;;22.92;13.23;;;;;;;0.03;100.00;101097.56;4979849;28;20676;-41
2023/12/08 10:43:40;;;;;;;21.95;12.57;;;;;;;0.02;100.00;101087.88;4981889;28;20209;-43
2023/12/08 10:46:07;;;;;;;19.40;11.93;;;;;;;0.01;100.00;101080.84;4980939;28;20182;-42
2023/12/08 10:48:34;;;;;;;21.98;14.65;;;;;;;-0.01;100.00;101070.28;4982808;28;20504;-42
2023/12/08 10:51:00;;;;;;;24.65;13.05;;;;;;;-0.03;100.00;101077.28;4976989;28;20198;-41
2023/12/08 10:53:27;;;;;;;23.67;13.23;;;;;;;-0.02;100.00;101071.19;4979276;28;20190;-41
2023/12/08 10:56:00;;;;;;;18.27;12.48;;;;;;;0.05;100.00;101072.13;4991193;28;20182;-38